Hlavní strana
METAR-TAF:

METAR-TAF

Letiště :

Forlì, Itálie

zeměpisná šířka: 44-12N, zeměpisná délka: 012-04E, výška: 27 m

Aktuální stav počasí

Zpráva byla vytvořena před 20 hodinami a 38 minutami, v 14:50 UTC
Západoseverozápadní vítr 6 kt
Teplota 3°C
Vlhkost vzduchu 70%
Tlak 1008 hPa
Viditelnost: 5000 m
Oblačno až skoro zataženo ve výšce 1500 ft
kouřmo

METAR: LIPK 201450Z 30006KT 5000 BR BKN015 03/M02 Q1008

Čas: 12:28 (11:28 UTC)


TAF: chybějící

Stav a předpovědi počasí z více než 4 000 letišť (zprávy METAR a TAF).

Červené a žluté tečky na mapě představují dostupné meteorologické stanice.

Když kurzor umístíte na tečku, zobrazí se název stanice.

Pak kliknutím zobrazíte stav a předpověď počasí.

Chcete-li změnit mapu, kliknutím na zelené tlačítko se znaménkem +mapu přiblížíte, kliknutím na zelené tlačítko se znaménkem – mapu oddálíte a kliknutím na zelené šipky přejdete na sousední mapy.


METAR-TAF: